Time;durP1;ratioP1;P1;durP2;ratioP2;P2;SDS_P1;SDS_P2;PMS_P1;PMS_P2;Temp;Humidity;BMP_temperature;BMP_pressure;BME280_temperature;BME280_humidity;BME280_pressure;Samples;Min_cycle;Max_cycle;Signal;HPM_P1;HPM_P2
2021/09/02 00:01:11;;;;;;;13.75;9.05;;;;;;;;;;5078487;28;20032;-55
2021/09/02 00:03:37;;;;;;;13.75;8.82;;;;;;;;;;5078706;28;20021;-55
2021/09/02 00:06:03;;;;;;;13.35;8.65;;;;;;;;;;5078590;28;20442;-55
2021/09/02 00:08:29;;;;;;;14.07;8.38;;;;;;;;;;5078693;28;20471;-56
2021/09/02 00:10:55;;;;;;;13.52;8.65;;;;;;;;;;5078349;28;20024;-55
2021/09/02 00:13:21;;;;;;;14.77;9.00;;;;;;;;;;5078411;28;20051;-55
2021/09/02 00:15:49;;;;;;;20.10;9.80;;;;;;;;;;5064959;28;20021;-55
2021/09/02 00:18:15;;;;;;;22.90;10.55;;;;;;;;;;5078500;28;20028;-55
2021/09/02 00:20:41;;;;;;;18.58;9.13;;;;;;;;;;5078348;28;20046;-55
2021/09/02 00:23:07;;;;;;;19.67;9.25;;;;;;;;;;5073191;28;20510;-56
2021/09/02 00:25:33;;;;;;;16.75;9.48;;;;;;;;;;5077929;28;20032;-56
2021/09/02 00:28:00;;;;;;;16.55;8.15;;;;;;;;;;5078298;28;20024;-56
2021/09/02 00:30:26;;;;;;;15.43;7.97;;;;;;;;;;5078227;28;20074;-56
2021/09/02 00:32:52;;;;;;;16.58;8.73;;;;;;;;;;5078150;28;20372;-56
2021/09/02 00:35:18;;;;;;;15.88;8.65;;;;;;;;;;5078137;28;20024;-56
2021/09/02 00:37:44;;;;;;;13.38;7.90;;;;;;;;;;5077963;28;20024;-55
2021/09/02 00:40:10;;;;;;;15.23;7.78;;;;;;;;;;5077798;28;20036;-56
2021/09/02 00:42:36;;;;;;;16.30;7.32;;;;;;;;;;5078089;28;20028;-55
2021/09/02 00:45:03;;;;;;;14.57;8.13;;;;;;;;;;5077926;28;20020;-56
2021/09/02 00:47:29;;;;;;;13.52;7.90;;;;;;;;;;5077639;28;20027;-56
2021/09/02 00:49:55;;;;;;;13.55;7.93;;;;;;;;;;5077792;28;20054;-56
2021/09/02 00:52:23;;;;;;;13.27;7.50;;;;;;;;;;5077922;28;20429;-56
2021/09/02 00:54:51;;;;;;;12.38;7.60;;;;;;;;;;5077282;28;20028;-55
2021/09/02 00:57:18;;;;;;;12.10;6.82;;;;;;;;;;5077863;28;20142;-56
2021/09/02 00:59:45;;;;;;;13.20;7.05;;;;;;;;;;5077611;28;20055;-56
2021/09/02 01:02:11;;;;;;;13.68;7.07;;;;;;;;;;5077757;28;20031;-57
2021/09/02 01:04:39;;;;;;;12.23;7.13;;;;;;;;;;5077474;28;20025;-57
2021/09/02 01:07:05;;;;;;;12.90;7.20;;;;;;;;;;5077807;28;20052;-56
2021/09/02 01:09:32;;;;;;;12.02;7.07;;;;;;;;;;5077395;28;20031;-56
2021/09/02 01:11:58;;;;;;;14.02;7.03;;;;;;;;;;5076803;28;20166;-56
2021/09/02 01:14:25;;;;;;;12.45;6.53;;;;;;;;;;5073582;28;20028;-56
2021/09/02 01:17:28;;;;;;;14.50;6.95;;;;;;;;;;5072069;28;20020;-56
2021/09/02 01:25:25;;;;;;;12.77;7.25;;;;;;;;;;5078949;28;20107;-55
2021/09/02 01:27:55;;;;;;;16.38;7.53;;;;;;;;;;5080449;28;20027;-56
2021/09/02 01:30:22;;;;;;;14.75;7.90;;;;;;;;;;5078441;28;20024;-56
2021/09/02 01:32:50;;;;;;;14.48;8.00;;;;;;;;;;5077955;28;20055;-56
2021/09/02 01:35:16;;;;;;;15.85;7.53;;;;;;;;;;5077426;28;20017;-55
2021/09/02 01:37:42;;;;;;;17.05;7.68;;;;;;;;;;5077007;28;20027;-56
2021/09/02 01:40:10;;;;;;;13.48;7.05;;;;;;;;;;5077022;28;20125;-56
2021/09/02 01:42:36;;;;;;;13.32;6.93;;;;;;;;;;5085951;28;20475;-56
2021/09/02 01:45:02;;;;;;;16.08;7.82;;;;;;;;;;5077206;28;20025;-56
2021/09/02 01:47:28;;;;;;;14.30;6.88;;;;;;;;;;5077236;28;20108;-56
2021/09/02 01:49:55;;;;;;;14.63;7.03;;;;;;;;;;5066917;28;20033;-56
2021/09/02 01:52:22;;;;;;;13.10;6.10;;;;;;;;;;5077222;28;20020;-56
2021/09/02 01:54:48;;;;;;;12.85;7.00;;;;;;;;;;5076604;28;20537;-55
2021/09/02 01:57:15;;;;;;;13.07;6.78;;;;;;;;;;5076760;28;20027;-56
2021/09/02 01:59:41;;;;;;;14.02;6.78;;;;;;;;;;5076838;28;20017;-56
2021/09/02 02:02:07;;;;;;;13.98;6.82;;;;;;;;;;5077128;28;20028;-56
2021/09/02 02:04:33;;;;;;;13.02;6.28;;;;;;;;;;5076808;28;20040;-56
2021/09/02 02:07:00;;;;;;;13.45;6.28;;;;;;;;;;5077187;28;20024;-56
2021/09/02 02:09:26;;;;;;;13.25;6.82;;;;;;;;;;5076508;28;20082;-56
2021/09/02 02:11:52;;;;;;;15.35;6.32;;;;;;;;;;5076904;28;20445;-56
2021/09/02 02:14:18;;;;;;;10.75;6.32;;;;;;;;;;5073789;28;20488;-57
2021/09/02 02:16:44;;;;;;;14.25;6.45;;;;;;;;;;5086520;28;20048;-56
2021/09/02 02:19:10;;;;;;;11.90;6.05;;;;;;;;;;5076785;28;20033;-57
2021/09/02 02:21:36;;;;;;;11.20;6.05;;;;;;;;;;5077177;28;20027;-55
2021/09/02 02:24:03;;;;;;;12.63;5.95;;;;;;;;;;5079865;28;20036;-56
2021/09/02 02:26:29;;;;;;;10.35;5.95;;;;;;;;;;5080577;28;20384;-56
2021/09/02 02:28:55;;;;;;;11.88;6.03;;;;;;;;;;5080635;28;20024;-56
2021/09/02 02:31:21;;;;;;;10.95;6.00;;;;;;;;;;5080327;28;20038;-57
2021/09/02 02:33:47;;;;;;;17.40;6.20;;;;;;;;;;5080441;28;20112;-56
2021/09/02 02:36:13;;;;;;;13.77;6.32;;;;;;;;;;5080507;28;20026;-57
2021/09/02 02:38:39;;;;;;;12.30;6.10;;;;;;;;;;5080235;28;20406;-56
2021/09/02 02:41:06;;;;;;;13.32;6.30;;;;;;;;;;5080253;28;20021;-56
2021/09/02 02:43:32;;;;;;;13.63;6.55;;;;;;;;;;5080359;28;20025;-56
2021/09/02 02:45:58;;;;;;;13.15;6.97;;;;;;;;;;5080333;28;20398;-55
2021/09/02 02:48:25;;;;;;;11.15;6.32;;;;;;;;;;5077527;28;20547;-55
2021/09/02 02:50:51;;;;;;;13.30;6.13;;;;;;;;;;5071295;28;20085;-55
2021/09/02 02:53:17;;;;;;;15.93;7.10;;;;;;;;;;5079967;28;20031;-56
2021/09/02 02:55:44;;;;;;;11.13;5.93;;;;;;;;;;5079884;28;20020;-55
2021/09/02 02:58:10;;;;;;;12.20;5.68;;;;;;;;;;5079988;28;20380;-56
2021/09/02 03:00:36;;;;;;;11.52;6.30;;;;;;;;;;5080106;28;20025;-56
2021/09/02 03:03:02;;;;;;;10.15;5.47;;;;;;;;;;5079855;28;20471;-56
2021/09/02 03:05:28;;;;;;;10.35;5.53;;;;;;;;;;5080049;28;20029;-56
2021/09/02 03:07:54;;;;;;;12.90;5.97;;;;;;;;;;5079763;28;20036;-56
2021/09/02 03:10:20;;;;;;;10.43;5.88;;;;;;;;;;5079729;28;20048;-56
2021/09/02 03:12:46;;;;;;;10.13;5.63;;;;;;;;;;5079629;28;20076;-56
2021/09/02 03:15:12;;;;;;;12.00;6.00;;;;;;;;;;5069510;28;20048;-55
2021/09/02 03:17:39;;;;;;;10.05;5.75;;;;;;;;;;5076698;28;20035;-55
2021/09/02 03:20:06;;;;;;;10.63;5.97;;;;;;;;;;5079828;28;20020;-56
2021/09/02 03:22:32;;;;;;;12.75;5.65;;;;;;;;;;5078346;28;20021;-56
2021/09/02 03:24:58;;;;;;;11.23;5.65;;;;;;;;;;5079394;28;20025;-57
2021/09/02 03:27:24;;;;;;;12.48;5.88;;;;;;;;;;5079452;28;20025;-56
2021/09/02 03:29:50;;;;;;;10.80;5.97;;;;;;;;;;5079504;28;20025;-56
2021/09/02 03:32:17;;;;;;;13.85;6.25;;;;;;;;;;5079377;28;20057;-56
2021/09/02 03:34:43;;;;;;;12.10;5.80;;;;;;;;;;5078654;28;20471;-56
2021/09/02 03:37:09;;;;;;;9.25;5.97;;;;;;;;;;5079233;28;20055;-57
2021/09/02 03:39:35;;;;;;;9.98;5.85;;;;;;;;;;5079231;28;20099;-56
2021/09/02 03:42:01;;;;;;;13.02;6.15;;;;;;;;;;5079128;28;20039;-56
2021/09/02 03:44:27;;;;;;;13.18;6.28;;;;;;;;;;5079388;28;20418;-56
2021/09/02 03:46:53;;;;;;;11.65;5.78;;;;;;;;;;5078969;28;20024;-55
2021/09/02 03:49:20;;;;;;;10.32;5.53;;;;;;;;;;5069072;28;20405;-56
2021/09/02 03:51:46;;;;;;;10.18;6.57;;;;;;;;;;5077901;28;20029;-56
2021/09/02 03:54:12;;;;;;;11.63;6.25;;;;;;;;;;5078864;28;20082;-56
2021/09/02 03:56:38;;;;;;;10.32;5.85;;;;;;;;;;5078823;28;20025;-55
2021/09/02 03:59:04;;;;;;;10.88;6.32;;;;;;;;;;5079082;28;20021;-55
2021/09/02 04:01:30;;;;;;;10.90;6.25;;;;;;;;;;5078677;28;20082;-55
2021/09/02 04:03:56;;;;;;;11.45;6.10;;;;;;;;;;5078935;28;20025;-56
2021/09/02 04:06:22;;;;;;;10.20;5.45;;;;;;;;;;5078946;28;20024;-56
2021/09/02 04:08:50;;;;;;;10.95;5.68;;;;;;;;;;5078923;28;20036;-56
2021/09/02 04:11:16;;;;;;;10.98;6.20;;;;;;;;;;5078607;28;20093;-56
2021/09/02 04:13:42;;;;;;;9.88;5.70;;;;;;;;;;5078591;28;20376;-56
2021/09/02 04:16:08;;;;;;;11.93;6.10;;;;;;;;;;5065008;28;20024;-56
2021/09/02 04:18:34;;;;;;;13.15;6.60;;;;;;;;;;5078549;28;20028;-56
2021/09/02 04:21:04;;;;;;;11.88;5.72;;;;;;;;;;5078403;28;20024;-54
2021/09/02 04:23:31;;;;;;;10.48;5.97;;;;;;;;;;5078621;28;20040;-55
2021/09/02 04:25:57;;;;;;;11.05;5.78;;;;;;;;;;5078195;28;20024;-56
2021/09/02 04:28:23;;;;;;;11.32;6.03;;;;;;;;;;5078288;28;20032;-56
2021/09/02 04:30:49;;;;;;;10.20;6.55;;;;;;;;;;5077902;28;20033;-56
2021/09/02 04:33:15;;;;;;;11.05;6.18;;;;;;;;;;5078208;28;20025;-56
2021/09/02 04:35:41;;;;;;;10.45;6.30;;;;;;;;;;5078066;28;20020;-55
2021/09/02 04:38:07;;;;;;;11.02;6.28;;;;;;;;;;5078087;28;20074;-55
2021/09/02 04:40:33;;;;;;;10.63;6.25;;;;;;;;;;5077748;28;20146;-55
2021/09/02 04:42:59;;;;;;;10.15;6.28;;;;;;;;;;5078047;28;20064;-54
2021/09/02 04:45:25;;;;;;;9.90;6.13;;;;;;;;;;5077880;28;20115;-56
2021/09/02 04:47:52;;;;;;;10.82;6.80;;;;;;;;;;5077824;28;20028;-55
2021/09/02 04:50:18;;;;;;;12.55;6.43;;;;;;;;;;5076104;28;20017;-56
2021/09/02 04:52:44;;;;;;;12.00;6.80;;;;;;;;;;5066476;28;20081;-56
2021/09/02 04:55:10;;;;;;;11.10;6.93;;;;;;;;;;5076880;28;20160;-56
2021/09/02 04:57:37;;;;;;;10.32;6.50;;;;;;;;;;5077172;28;20031;-56
2021/09/02 05:00:04;;;;;;;11.23;6.25;;;;;;;;;;5077439;28;20052;-57
2021/09/02 05:02:31;;;;;;;12.05;6.68;;;;;;;;;;5077369;28;20541;-59
2021/09/02 05:04:57;;;;;;;12.23;6.53;;;;;;;;;;5077461;28;20495;-57
2021/09/02 05:07:23;;;;;;;11.27;6.75;;;;;;;;;;5077177;28;20036;-56
2021/09/02 05:09:49;;;;;;;13.48;6.95;;;;;;;;;;5071385;28;20048;-58
2021/09/02 05:12:16;;;;;;;16.30;7.53;;;;;;;;;;5071508;28;20075;-58
2021/09/02 05:14:43;;;;;;;14.20;7.22;;;;;;;;;;5070883;28;20430;-59
2021/09/02 05:17:11;;;;;;;13.20;6.57;;;;;;;;;;5070690;28;20076;-57
2021/09/02 05:19:37;;;;;;;11.95;6.63;;;;;;;;;;5064104;28;20027;-57
2021/09/02 05:22:03;;;;;;;10.82;6.45;;;;;;;;;;5077327;28;20025;-57
2021/09/02 05:24:29;;;;;;;15.80;7.70;;;;;;;;;;5077082;28;20112;-57
2021/09/02 05:26:56;;;;;;;12.43;6.72;;;;;;;;;;5076943;28;20036;-56
2021/09/02 05:29:22;;;;;;;12.68;7.07;;;;;;;;;;5076868;28;20024;-57
2021/09/02 05:31:48;;;;;;;13.70;7.57;;;;;;;;;;5077038;28;20490;-57
2021/09/02 05:34:14;;;;;;;64.88;33.10;;;;;;;;;;5077223;28;20505;-59
2021/09/02 05:36:40;;;;;;;194.05;87.20;;;;;;;;;;5077225;28;20032;-59
2021/09/02 05:39:06;;;;;;;164.15;76.75;;;;;;;;;;5077181;28;20016;-59
2021/09/02 05:41:33;;;;;;;138.00;65.07;;;;;;;;;;5077211;28;20024;-59
2021/09/02 05:43:59;;;;;;;128.57;58.80;;;;;;;;;;5077352;28;20024;-60
2021/09/02 05:46:25;;;;;;;118.93;52.47;;;;;;;;;;5077123;28;20028;-58
2021/09/02 05:48:51;;;;;;;79.93;39.30;;;;;;;;;;5071029;28;20021;-61
2021/09/02 05:51:17;;;;;;;65.22;32.92;;;;;;;;;;5072287;28;20028;-61
2021/09/02 05:53:43;;;;;;;61.38;30.45;;;;;;;;;;5077082;28;20020;-61
2021/09/02 05:56:09;;;;;;;52.45;27.63;;;;;;;;;;5076791;28;20024;-60
2021/09/02 05:58:35;;;;;;;48.55;25.45;;;;;;;;;;5079557;28;20016;-60
2021/09/02 06:01:01;;;;;;;47.50;23.35;;;;;;;;;;5080567;28;20016;-60
2021/09/02 06:03:28;;;;;;;46.30;23.10;;;;;;;;;;5080151;28;20522;-60
2021/09/02 06:05:54;;;;;;;42.50;21.52;;;;;;;;;;5079560;28;20119;-60
2021/09/02 06:08:20;;;;;;;41.78;21.83;;;;;;;;;;5080989;28;20089;-59
2021/09/02 06:10:47;;;;;;;36.40;21.10;;;;;;;;;;5080747;28;20060;-60
2021/09/02 06:13:13;;;;;;;31.25;19.88;;;;;;;;;;5080975;28;20041;-59
2021/09/02 06:15:39;;;;;;;42.28;21.02;;;;;;;;;;5067543;28;20032;-60
2021/09/02 06:18:05;;;;;;;34.50;19.05;;;;;;;;;;5081003;28;20027;-60
2021/09/02 06:20:32;;;;;;;33.63;18.50;;;;;;;;;;5080765;28;20062;-60
2021/09/02 06:22:58;;;;;;;35.65;19.23;;;;;;;;;;5080860;28;20052;-60
2021/09/02 06:25:24;;;;;;;34.95;17.83;;;;;;;;;;5080441;28;20364;-60
2021/09/02 06:27:50;;;;;;;32.08;17.40;;;;;;;;;;5080846;28;20074;-60
2021/09/02 06:30:16;;;;;;;33.10;16.55;;;;;;;;;;5080381;28;20055;-60
2021/09/02 06:32:43;;;;;;;31.05;18.17;;;;;;;;;;5080825;28;20025;-60
2021/09/02 06:35:09;;;;;;;26.00;15.70;;;;;;;;;;5080509;28;20020;-59
2021/09/02 06:37:35;;;;;;;32.38;17.35;;;;;;;;;;5080572;28;20024;-60
2021/09/02 06:40:01;;;;;;;31.05;14.43;;;;;;;;;;5080387;28;20024;-60
2021/09/02 06:42:27;;;;;;;29.80;16.05;;;;;;;;;;5080523;28;20021;-60
2021/09/02 06:44:54;;;;;;;27.92;14.85;;;;;;;;;;5080529;28;20060;-60
2021/09/02 06:47:20;;;;;;;26.73;14.45;;;;;;;;;;5080334;28;20158;-60
2021/09/02 06:49:46;;;;;;;29.38;14.98;;;;;;;;;;5068829;28;20029;-60
2021/09/02 06:52:12;;;;;;;25.33;13.25;;;;;;;;;;5080321;28;20467;-60
2021/09/02 06:54:38;;;;;;;22.80;13.27;;;;;;;;;;5079818;28;20025;-60
2021/09/02 06:57:04;;;;;;;27.42;13.02;;;;;;;;;;5080174;28;20531;-60
2021/09/02 06:59:30;;;;;;;23.52;12.75;;;;;;;;;;5080150;28;20021;-60
2021/09/02 07:01:56;;;;;;;22.08;12.18;;;;;;;;;;5080319;28;20062;-59
2021/09/02 07:04:22;;;;;;;20.17;12.18;;;;;;;;;;5080013;28;20024;-59
2021/09/02 07:06:48;;;;;;;20.35;11.70;;;;;;;;;;5080012;28;20490;-60
2021/09/02 07:09:15;;;;;;;19.88;11.93;;;;;;;;;;5078402;28;20024;-59
2021/09/02 07:11:41;;;;;;;22.88;11.60;;;;;;;;;;5080052;28;20057;-59
2021/09/02 07:14:07;;;;;;;21.73;11.48;;;;;;;;;;5078339;28;20051;-60
2021/09/02 07:16:33;;;;;;;21.13;11.60;;;;;;;;;;5067675;28;20020;-60
2021/09/02 07:18:59;;;;;;;23.10;11.50;;;;;;;;;;5079707;28;20479;-60
2021/09/02 07:21:25;;;;;;;19.35;10.35;;;;;;;;;;5079833;28;20035;-60
2021/09/02 07:23:51;;;;;;;17.83;10.38;;;;;;;;;;5079191;28;20514;-60
2021/09/02 07:26:18;;;;;;;17.70;10.15;;;;;;;;;;5079766;28;20043;-60
2021/09/02 07:28:44;;;;;;;18.58;10.27;;;;;;;;;;5079622;28;20394;-60
2021/09/02 07:31:10;;;;;;;17.55;9.43;;;;;;;;;;5079288;28;20055;-60
2021/09/02 07:33:36;;;;;;;17.33;10.45;;;;;;;;;;5079336;28;20475;-60
2021/09/02 07:36:02;;;;;;;18.27;10.15;;;;;;;;;;5079406;28;20021;-60
2021/09/02 07:38:28;;;;;;;16.60;9.88;;;;;;;;;;5078949;28;20029;-60
2021/09/02 07:40:54;;;;;;;17.08;9.23;;;;;;;;;;5079275;28;20078;-59
2021/09/02 07:43:20;;;;;;;14.30;9.38;;;;;;;;;;5079157;28;20029;-60
2021/09/02 07:45:46;;;;;;;16.15;9.63;;;;;;;;;;5079342;28;20024;-60
2021/09/02 07:48:12;;;;;;;16.67;8.45;;;;;;;;;;5077942;28;20498;-60
2021/09/02 07:50:39;;;;;;;15.30;9.18;;;;;;;;;;5068465;28;20036;-60
2021/09/02 07:53:05;;;;;;;15.85;8.95;;;;;;;;;;5078857;28;20032;-60
2021/09/02 07:55:31;;;;;;;12.93;8.27;;;;;;;;;;5079048;28;20490;-60
2021/09/02 07:58:00;;;;;;;15.18;8.55;;;;;;;;;;5079049;28;20021;-60
2021/09/02 08:00:26;;;;;;;14.10;8.68;;;;;;;;;;5079248;28;20028;-60
2021/09/02 08:02:52;;;;;;;16.58;8.07;;;;;;;;;;5078848;28;20055;-60
2021/09/02 08:05:18;;;;;;;12.93;8.15;;;;;;;;;;5078957;28;20038;-60
2021/09/02 08:07:44;;;;;;;14.27;8.18;;;;;;;;;;5078693;28;20096;-60
2021/09/02 08:10:11;;;;;;;12.27;7.20;;;;;;;;;;5078622;28;20021;-60
2021/09/02 08:12:37;;;;;;;14.35;8.10;;;;;;;;;;5078550;28;20499;-60
2021/09/02 08:15:03;;;;;;;13.55;7.90;;;;;;;;;;5069562;28;20036;-60
2021/09/02 08:17:29;;;;;;;15.15;8.27;;;;;;;;;;5074372;28;20020;-60
2021/09/02 08:19:55;;;;;;;11.95;8.18;;;;;;;;;;5078483;28;20025;-60
2021/09/02 08:22:22;;;;;;;12.63;8.10;;;;;;;;;;5078353;28;20418;-60
2021/09/02 08:24:48;;;;;;;14.10;8.15;;;;;;;;;;5078508;28;20033;-60
2021/09/02 08:27:14;;;;;;;12.88;7.65;;;;;;;;;;5078246;28;20032;-60
2021/09/02 08:29:40;;;;;;;13.57;7.63;;;;;;;;;;5078132;28;20032;-60
2021/09/02 08:32:06;;;;;;;14.32;8.00;;;;;;;;;;5078217;28;20029;-60
2021/09/02 08:34:32;;;;;;;14.57;7.82;;;;;;;;;;5078232;28;20032;-60
2021/09/02 08:36:58;;;;;;;12.43;8.13;;;;;;;;;;5078089;28;20021;-60
2021/09/02 08:39:25;;;;;;;13.70;7.80;;;;;;;;;;5077935;28;20070;-60
2021/09/02 08:41:51;;;;;;;12.18;7.85;;;;;;;;;;5078078;28;20471;-60
2021/09/02 08:44:17;;;;;;;14.10;8.27;;;;;;;;;;5078387;28;20038;-60
2021/09/02 08:46:43;;;;;;;13.13;7.20;;;;;;;;;;5077872;28;20025;-60
2021/09/02 08:49:11;;;;;;;12.88;7.68;;;;;;;;;;5069232;28;20501;-60
2021/09/02 08:51:37;;;;;;;12.20;7.82;;;;;;;;;;5075631;28;20029;-60
2021/09/02 08:54:04;;;;;;;12.15;7.45;;;;;;;;;;5077542;28;20051;-60
2021/09/02 08:56:30;;;;;;;13.50;7.93;;;;;;;;;;5077808;28;20100;-60
2021/09/02 08:58:56;;;;;;;12.63;8.43;;;;;;;;;;5078125;28;20020;-60
2021/09/02 09:01:22;;;;;;;12.95;7.05;;;;;;;;;;5077791;28;20502;-60
2021/09/02 09:03:49;;;;;;;11.18;6.85;;;;;;;;;;5077798;28;20475;-60
2021/09/02 09:06:22;;;;;;;13.60;7.75;;;;;;;;;;5077620;28;20024;-60
2021/09/02 09:08:48;;;;;;;11.27;7.57;;;;;;;;;;5077370;28;20035;-60
2021/09/02 09:11:17;;;;;;;13.88;7.75;;;;;;;;;;5077527;28;20025;-60
2021/09/02 09:13:43;;;;;;;12.85;7.30;;;;;;;;;;5077701;28;20548;-60
2021/09/02 09:16:09;;;;;;;11.52;7.80;;;;;;;;;;5064133;28;20048;-60
2021/09/02 09:18:41;;;;;;;11.10;7.32;;;;;;;;;;5077705;28;20024;-60
2021/09/02 09:21:15;;;;;;;13.70;8.20;;;;;;;;;;5077475;28;20494;-60
2021/09/02 09:23:50;;;;;;;12.13;7.65;;;;;;;;;;5077361;28;20107;-61
2021/09/02 09:26:17;;;;;;;12.68;7.20;;;;;;;;;;5077493;28;20060;-60
2021/09/02 09:28:43;;;;;;;11.93;7.95;;;;;;;;;;5077374;28;20107;-60
2021/09/02 09:31:28;;;;;;;14.05;7.85;;;;;;;;;;5077124;28;20029;-60
2021/09/02 09:33:55;;;;;;;14.30;8.15;;;;;;;;;;5076611;28;20605;-61
2021/09/02 09:36:22;;;;;;;14.00;7.80;;;;;;;;;;5077657;28;20024;-61
2021/09/02 09:38:58;;;;;;;13.00;8.43;;;;;;;;;;5077150;28;20048;-60
2021/09/02 09:41:51;;;;;;;12.82;8.13;;;;;;;;;;5077477;28;20025;-61
2021/09/02 09:44:17;;;;;;;;;;;;;;;;;;5075091;28;20501;-61
2021/09/02 09:46:43;;;;;;;12.95;7.47;;;;;;;;;;5077086;28;19947;-61
2021/09/02 09:49:09;;;;;;;14.00;8.38;;;;;;;;;;5068561;28;20029;-61
2021/09/02 09:51:35;;;;;;;12.77;7.65;;;;;;;;;;5075094;28;20486;-61
2021/09/02 09:54:02;;;;;;;11.23;7.07;;;;;;;;;;5077046;28;20040;-61
2021/09/02 09:56:28;;;;;;;11.57;7.82;;;;;;;;;;5077057;28;20017;-61
2021/09/02 09:58:55;;;;;;;11.73;7.35;;;;;;;;;;5077438;28;20051;-61
2021/09/02 10:01:22;;;;;;;14.63;8.95;;;;;;;;;;5077253;28;20016;-61
2021/09/02 10:03:51;;;;;;;11.15;7.57;;;;;;;;;;5077133;28;20082;-61
2021/09/02 10:06:18;;;;;;;11.85;7.85;;;;;;;;;;5077192;28;20036;-61
2021/09/02 10:08:45;;;;;;;13.13;8.02;;;;;;;;;;5076987;28;20054;-61
2021/09/02 10:11:12;;;;;;;12.88;8.18;;;;;;;;;;5076867;28;20099;-61
2021/09/02 10:13:39;;;;;;;12.30;8.32;;;;;;;;;;5077232;28;20047;-61
2021/09/02 10:16:05;;;;;;;10.68;7.35;;;;;;;;;;5061198;28;20025;-61
2021/09/02 10:18:33;;;;;;;12.45;7.90;;;;;;;;;;5075931;28;20033;-61
2021/09/02 10:21:03;;;;;;;13.95;7.68;;;;;;;;;;5075663;28;20111;-61
2021/09/02 10:23:30;;;;;;;12.18;7.45;;;;;;;;;;5063393;28;20028;-61
2021/09/02 10:25:56;;;;;;;13.30;8.13;;;;;;;;;;5076244;28;20032;-61
2021/09/02 10:28:24;;;;;;;12.07;7.70;;;;;;;;;;5076579;28;20054;-61
2021/09/02 10:30:58;;;;;;;11.38;7.47;;;;;;;;;;5076352;28;20029;-61
2021/09/02 10:33:33;;;;;;;11.98;7.97;;;;;;;;;;5076630;28;20027;-61
2021/09/02 10:36:00;;;;;;;11.95;7.57;;;;;;;;;;5076727;28;20029;-61
2021/09/02 10:38:36;;;;;;;12.18;8.18;;;;;;;;;;5076734;28;20074;-61
2021/09/02 10:41:03;;;;;;;13.05;7.90;;;;;;;;;;5076695;28;20046;-61
2021/09/02 10:43:47;;;;;;;11.93;7.70;;;;;;;;;;5077655;28;20025;-61
2021/09/02 10:46:32;;;;;;;11.35;7.97;;;;;;;;;;5068625;28;20039;-60
2021/09/02 10:49:11;;;;;;;10.95;7.65;;;;;;;;;;5080169;28;20048;-61
2021/09/02 10:51:38;;;;;;;12.40;7.82;;;;;;;;;;5080451;28;20075;-61
2021/09/02 10:54:08;;;;;;;11.70;8.13;;;;;;;;;;5079930;28;20025;-61
2021/09/02 10:56:54;;;;;;;11.13;7.03;;;;;;;;;;5080055;28;20036;-61
2021/09/02 10:59:32;;;;;;;12.48;8.45;;;;;;;;;;5080494;28;20040;-61
2021/09/02 11:01:58;;;;;;;11.75;7.80;;;;;;;;;;5079933;28;20039;-61
2021/09/02 11:04:25;;;;;;;12.05;7.88;;;;;;;;;;5080277;28;20017;-61
2021/09/02 11:06:52;;;;;;;12.98;7.88;;;;;;;;;;5079829;28;20025;-61
2021/09/02 11:09:38;;;;;;;13.02;7.82;;;;;;;;;;5079985;28;20486;-61
2021/09/02 11:12:05;;;;;;;11.02;7.93;;;;;;;;;;5068021;28;20056;-61
2021/09/02 11:14:39;;;;;;;10.20;7.65;;;;;;;;;;5075162;28;20039;-61
2021/09/02 11:17:06;;;;;;;11.80;7.80;;;;;;;;;;5072063;28;20081;-61
2021/09/02 11:19:33;;;;;;;12.68;7.47;;;;;;;;;;5079665;28;20452;-61
2021/09/02 11:22:07;;;;;;;11.40;7.65;;;;;;;;;;5079912;28;20045;-61
2021/09/02 11:24:46;;;;;;;10.43;7.13;;;;;;;;;;5066948;28;20084;-61
2021/09/02 11:27:13;;;;;;;12.05;7.50;;;;;;;;;;5079490;28;20029;-61
2021/09/02 11:29:40;;;;;;;10.35;7.53;;;;;;;;;;5079411;28;20024;-61
2021/09/02 11:32:13;;;;;;;10.48;6.97;;;;;;;;;;5079444;28;20544;-61
2021/09/02 11:34:42;;;;;;;10.75;7.03;;;;;;;;;;5079571;28;20078;-61
2021/09/02 11:37:09;;;;;;;10.68;6.57;;;;;;;;;;5079356;28;20051;-61
2021/09/02 11:39:39;;;;;;;13.93;8.07;;;;;;;;;;5079159;28;20025;-61
2021/09/02 11:42:07;;;;;;;12.30;8.00;;;;;;;;;;5079307;28;20475;-61
2021/09/02 11:44:35;;;;;;;11.23;7.22;;;;;;;;;;5079542;28;20387;-61
2021/09/02 11:47:04;;;;;;;10.38;6.55;;;;;;;;;;5079031;28;20099;-61
2021/09/02 11:49:30;;;;;;;10.38;6.95;;;;;;;;;;5067494;28;20035;-61
2021/09/02 11:51:57;;;;;;;9.02;6.95;;;;;;;;;;5079296;28;20025;-61
2021/09/02 11:54:24;;;;;;;11.27;7.50;;;;;;;;;;5078734;28;20478;-61
2021/09/02 11:56:50;;;;;;;10.77;7.05;;;;;;;;;;5078539;28;20111;-61
2021/09/02 11:59:16;;;;;;;12.00;7.22;;;;;;;;;;5078884;28;20384;-60
2021/09/02 12:01:43;;;;;;;11.02;7.25;;;;;;;;;;5079141;28;20043;-61
2021/09/02 12:04:15;;;;;;;11.88;7.30;;;;;;;;;;5078817;28;20438;-61
2021/09/02 12:06:41;;;;;;;10.82;7.40;;;;;;;;;;5079210;28;20024;-60
2021/09/02 12:09:08;;;;;;;12.73;7.05;;;;;;;;;;5078567;28;20040;-61
2021/09/02 12:11:34;;;;;;;10.82;7.10;;;;;;;;;;5078822;28;20037;-61
2021/09/02 12:14:20;;;;;;;11.13;7.03;;;;;;;;;;5078135;28;20407;-61
2021/09/02 12:16:47;;;;;;;10.63;6.82;;;;;;;;;;5068460;28;20017;-61
2021/09/02 12:19:13;;;;;;;10.93;7.35;;;;;;;;;;5078502;28;20024;-61
2021/09/02 12:21:39;;;;;;;11.20;6.70;;;;;;;;;;5078759;28;20107;-61
2021/09/02 12:24:10;;;;;;;12.18;7.38;;;;;;;;;;5078100;28;20036;-61
2021/09/02 12:26:51;;;;;;;10.10;6.22;;;;;;;;;;5078592;28;20031;-60
2021/09/02 12:29:21;;;;;;;11.93;7.00;;;;;;;;;;5078043;28;20514;-61
2021/09/02 12:31:48;;;;;;;11.27;7.07;;;;;;;;;;5078427;28;20055;-60
2021/09/02 12:34:19;;;;;;;10.68;6.85;;;;;;;;;;5078451;28;20050;-60
2021/09/02 12:36:57;;;;;;;9.02;6.05;;;;;;;;;;5078242;28;20049;-60
2021/09/02 12:39:27;;;;;;;11.40;7.25;;;;;;;;;;5078177;28;20085;-60
2021/09/02 12:41:55;;;;;;;9.35;6.47;;;;;;;;;;5078082;28;20024;-60
2021/09/02 12:44:30;;;;;;;9.15;6.60;;;;;;;;;;5078195;28;20548;-60
2021/09/02 12:46:56;;;;;;;10.35;6.60;;;;;;;;;;5077913;28;20062;-60
2021/09/02 12:49:23;;;;;;;9.45;6.57;;;;;;;;;;5067701;28;20028;-60
2021/09/02 12:52:19;;;;;;;11.95;7.00;;;;;;;;;;5077163;28;20024;-60
2021/09/02 12:55:04;;;;;;;10.32;6.70;;;;;;;;;;5068884;28;20037;-60
2021/09/02 12:57:35;;;;;;;11.32;6.18;;;;;;;;;;5077949;28;20020;-60
2021/09/02 13:00:02;;;;;;;11.48;7.18;;;;;;;;;;5078374;28;20032;-61
2021/09/02 13:02:28;;;;;;;10.57;6.50;;;;;;;;;;5077822;28;20033;-60
2021/09/02 13:04:54;;;;;;;10.23;6.63;;;;;;;;;;5078168;28;20032;-60
2021/09/02 13:07:20;;;;;;;10.98;6.63;;;;;;;;;;5076650;28;20482;-60
2021/09/02 13:09:47;;;;;;;10.00;6.22;;;;;;;;;;5077490;28;20081;-60
2021/09/02 13:12:13;;;;;;;11.10;6.78;;;;;;;;;;5077453;28;20048;-60
2021/09/02 13:14:39;;;;;;;9.82;6.38;;;;;;;;;;5072073;28;20104;-60
2021/09/02 13:17:05;;;;;;;8.77;6.20;;;;;;;;;;5070095;28;20024;-61
2021/09/02 13:19:31;;;;;;;10.38;6.72;;;;;;;;;;5077517;28;20441;-60
2021/09/02 13:21:57;;;;;;;10.25;6.68;;;;;;;;;;5077672;28;20020;-60
2021/09/02 13:24:23;;;;;;;9.35;6.60;;;;;;;;;;5076997;28;20075;-60
2021/09/02 13:26:49;;;;;;;9.80;7.03;;;;;;;;;;5077421;28;20108;-61
2021/09/02 13:29:16;;;;;;;9.02;6.03;;;;;;;;;;5076974;28;20040;-61
2021/09/02 13:31:42;;;;;;;9.57;6.35;;;;;;;;;;5077486;28;20023;-60
2021/09/02 13:34:08;;;;;;;8.90;5.90;;;;;;;;;;5077307;28;20037;-60
2021/09/02 13:36:34;;;;;;;9.30;6.40;;;;;;;;;;5077326;28;20077;-60
2021/09/02 13:39:00;;;;;;;10.63;6.72;;;;;;;;;;5077003;28;20037;-60
2021/09/02 13:41:26;;;;;;;9.68;6.25;;;;;;;;;;5077401;28;20051;-60
2021/09/02 13:43:52;;;;;;;9.70;6.03;;;;;;;;;;5077405;28;20036;-60
2021/09/02 13:46:18;;;;;;;10.85;6.70;;;;;;;;;;5077283;28;20017;-60
2021/09/02 13:48:44;;;;;;;10.07;6.75;;;;;;;;;;5071915;28;20028;-60
2021/09/02 13:51:11;;;;;;;9.45;6.25;;;;;;;;;;5070849;28;20016;-60
2021/09/02 13:53:38;;;;;;;9.38;6.53;;;;;;;;;;5076926;28;20394;-60
2021/09/02 13:56:04;;;;;;;8.15;5.75;;;;;;;;;;5077314;28;20029;-60
2021/09/02 13:58:30;;;;;;;10.05;6.45;;;;;;;;;;5077529;28;20063;-61
2021/09/02 14:01:00;;;;;;;10.27;6.38;;;;;;;;;;5077129;28;20494;-61
2021/09/02 14:03:27;;;;;;;8.70;5.82;;;;;;;;;;5077201;28;20032;-60
2021/09/02 14:05:53;;;;;;;9.38;5.55;;;;;;;;;;5077110;28;20025;-60
2021/09/02 14:08:19;;;;;;;9.18;6.43;;;;;;;;;;5077015;28;20074;-60
2021/09/02 14:10:45;;;;;;;9.68;5.97;;;;;;;;;;5076824;28;20052;-60
2021/09/02 14:13:11;;;;;;;10.65;6.20;;;;;;;;;;5076914;28;20049;-60
2021/09/02 14:15:37;;;;;;;10.27;5.63;;;;;;;;;;5063612;28;20021;-60
2021/09/02 14:18:03;;;;;;;8.70;5.97;;;;;;;;;;5077193;28;20029;-60
2021/09/02 14:20:30;;;;;;;8.85;6.05;;;;;;;;;;5080931;28;20033;-60
2021/09/02 14:22:56;;;;;;;9.02;6.10;;;;;;;;;;5080864;28;20031;-60
2021/09/02 14:25:22;;;;;;;8.57;5.78;;;;;;;;;;5080517;28;20031;-60
2021/09/02 14:27:48;;;;;;;9.13;6.20;;;;;;;;;;5080826;28;20025;-60
2021/09/02 14:30:15;;;;;;;9.13;5.82;;;;;;;;;;5080541;28;20020;-60
2021/09/02 14:32:41;;;;;;;8.60;6.00;;;;;;;;;;5080818;28;20028;-60
2021/09/02 14:35:08;;;;;;;8.90;5.78;;;;;;;;;;5080656;28;20497;-60